Time;durP1;ratioP1;P1;durP2;ratioP2;P2;SDS_P1;SDS_P2;PMS_P1;PMS_P2;Temp;Humidity;BMP_temperature;BMP_pressure;BME280_temperature;BME280_humidity;BME280_pressure;Samples;Min_cycle;Max_cycle;Signal;HPM_P1;HPM_P2
2021/01/07 00:01:43;;;;;;;14.48;6.72;;;4.20;1.00;;;;;;5036674;28;20207;-76
2021/01/07 00:04:13;;;;;;;12.23;6.10;;;4.10;1.00;;;;;;5036610;28;20290;-75
2021/01/07 00:06:43;;;;;;;13.73;6.20;;;4.20;1.00;;;;;;5055092;28;20176;-77
2021/01/07 00:09:42;;;;;;;11.07;5.90;;;4.20;1.00;;;;;;5055283;28;20512;-77
2021/01/07 00:12:08;;;;;;;12.20;5.32;;;;;;;;;;5055754;28;20520;-75
2021/01/07 00:14:34;;;;;;;9.88;4.70;;;4.10;1.00;;;;;;5053642;28;20259;-76
2021/01/07 00:17:07;;;;;;;11.37;5.60;;;4.10;1.00;;;;;;5056261;28;20242;-75
2021/01/07 00:19:43;;;;;;;13.02;5.55;;;4.10;1.00;;;;;;5054166;28;20230;-75
2021/01/07 00:22:30;;;;;;;12.20;5.65;;;4.10;1.00;;;;;;5052951;28;20239;-77
2021/01/07 00:25:42;;;;;;;8.38;4.93;;;4.10;1.00;;;;;;5043465;28;20187;-77
2021/01/07 00:31:30;;;;;;;15.75;5.20;;;4.10;1.00;;;;;;5035857;28;20184;-75
2021/01/07 00:34:18;;;;;;;12.90;5.23;;;4.10;1.00;;;;;;5035872;28;20177;-75
2021/01/07 00:37:06;;;;;;;12.40;5.22;;;4.10;1.00;;;;;;5035157;28;20211;-75
2021/01/07 00:39:32;;;;;;;13.40;5.82;;;;;;;;;;5037240;28;20177;-75
2021/01/07 00:42:42;;;;;;;11.40;5.68;;;4.10;1.00;;;;;;5042668;28;20168;-77
2021/01/07 00:45:13;;;;;;;11.68;6.05;;;4.10;1.00;;;;;;5038552;28;20171;-77
2021/01/07 00:47:44;;;;;;;11.13;6.32;;;4.00;1.00;;;;;;5052697;28;20182;-76
2021/01/07 00:50:13;;;;;;;17.88;6.55;;;4.00;1.00;;;;;;5042636;28;20636;-75
2021/01/07 00:52:49;;;;;;;16.00;6.15;;;4.00;1.00;;;;;;5034489;28;20172;-75
2021/01/07 00:55:36;;;;;;;10.93;6.50;;;4.00;1.00;;;;;;5048743;28;20172;-75
2021/01/07 00:58:13;;;;;;;16.67;6.55;;;4.00;1.00;;;;;;5041958;28;20184;-75
2021/01/07 01:00:38;;;;;;;14.68;6.53;;;4.00;1.00;;;;;;5039409;28;20237;-75
2021/01/07 01:03:07;;;;;;;14.37;5.70;;;4.00;1.00;;;;;;5055262;28;20171;-76
2021/01/07 01:06:12;;;;;;;14.68;7.32;;;4.00;1.00;;;;;;5055209;28;20511;-77
2021/01/07 01:08:49;;;;;;;15.38;7.10;;;4.00;1.00;;;;;;5050832;28;20167;-76
2021/01/07 01:11:27;;;;;;;11.00;5.20;;;4.00;1.00;;;;;;5044560;28;20576;-75
2021/01/07 01:13:53;;;;;;;13.80;5.78;;;4.00;1.00;;;;;;5034857;28;20160;-76
2021/01/07 01:16:19;;;;;;;12.35;5.85;;;4.00;1.00;;;;;;5045391;28;20274;-76
2021/01/07 01:18:44;;;;;;;16.77;7.63;;;3.90;1.00;;;;;;5043800;28;20196;-75
2021/01/07 01:21:16;;;;;;;11.97;6.43;;;3.90;1.00;;;;;;5046999;28;20170;-75
2021/01/07 01:23:42;;;;;;;9.13;5.45;;;3.90;1.00;;;;;;5034614;28;20219;-75
2021/01/07 01:26:19;;;;;;;15.20;7.40;;;3.90;1.00;;;;;;5040772;28;20206;-75
2021/01/07 01:29:06;;;;;;;13.32;5.47;;;3.90;1.00;;;;;;5054340;28;20246;-76
2021/01/07 01:31:43;;;;;;;16.30;5.95;;;3.90;1.00;;;;;;5053927;28;20172;-75
2021/01/07 01:34:15;;;;;;;12.00;6.00;;;3.90;1.00;;;;;;5034443;28;20688;-77
2021/01/07 01:36:43;;;;;;;9.88;5.22;;;3.90;1.00;;;;;;5034334;28;20206;-77
2021/01/07 01:39:08;;;;;;;17.15;6.82;;;3.90;1.00;;;;;;5033847;28;20263;-75
2021/01/07 01:41:44;;;;;;;11.53;5.77;;;3.90;1.00;;;;;;5049485;28;20259;-75
2021/01/07 01:44:14;;;;;;;14.65;5.65;;;3.90;1.00;;;;;;5052137;28;20148;-75
2021/01/07 01:46:43;;;;;;;15.30;6.07;;;3.90;1.00;;;;;;5053050;28;20246;-75
2021/01/07 01:49:14;;;;;;;12.50;5.22;;;3.90;1.00;;;;;;5054273;28;20156;-77
2021/01/07 01:51:43;;;;;;;9.85;4.80;;;4.00;1.00;;;;;;5041807;28;20234;-77
2021/01/07 01:54:31;;;;;;;12.80;5.68;;;4.00;1.00;;;;;;5041424;28;20179;-77
2021/01/07 01:57:42;;;;;;;10.05;5.45;;;3.90;1.00;;;;;;5053677;28;20191;-77
2021/01/07 02:00:36;;;;;;;11.93;5.65;;;4.00;1.00;;;;;;5054098;28;20233;-77
2021/01/07 02:03:08;;;;;;;10.35;5.20;;;4.00;1.00;;;;;;5033245;28;20184;-77
2021/01/07 02:05:43;;;;;;;12.25;5.55;;;4.00;1.00;;;;;;5033686;28;20607;-78
2021/01/07 02:08:14;;;;;;;11.93;5.63;;;4.00;1.00;;;;;;5032750;28;20689;-77
2021/01/07 02:10:43;;;;;;;7.68;4.30;;;4.00;1.00;;;;;;5037389;28;20206;-77
2021/01/07 02:13:19;;;;;;;13.48;5.43;;;4.00;1.00;;;;;;5052924;28;20183;-77
2021/01/07 02:19:13;;;;;;;9.50;4.75;;;3.90;1.00;;;;;;5034262;28;20179;-75
2021/01/07 02:21:43;;;;;;;10.48;5.32;;;3.90;1.00;;;;;;5035639;28;20168;-75
2021/01/07 02:24:14;;;;;;;9.43;4.80;;;3.90;1.00;;;;;;5033740;28;20188;-75
2021/01/07 02:26:42;;;;;;;10.02;5.05;;;3.90;1.00;;;;;;5042934;28;20498;-75
2021/01/07 02:29:08;;;;;;;9.63;4.68;;;3.80;1.00;;;;;;5041601;28;20628;-75
2021/01/07 02:31:33;;;;;;;9.07;4.30;;;3.90;1.00;;;;;;5037058;28;20230;-75
2021/01/07 02:34:13;;;;;;;11.43;5.00;;;3.90;1.00;;;;;;5034294;28;20231;-77
2021/01/07 02:36:43;;;;;;;6.63;4.35;;;3.90;1.00;;;;;;5033446;28;20532;-77
2021/01/07 02:39:42;;;;;;;10.32;5.03;;;3.90;1.00;;;;;;5033401;28;20550;-77
2021/01/07 02:42:13;;;;;;;10.00;5.35;;;3.80;1.00;;;;;;5040768;28;20171;-77
2021/01/07 02:44:43;;;;;;;10.18;4.82;;;3.90;1.00;;;;;;5053511;28;20167;-77
2021/01/07 02:47:31;;;;;;;9.95;4.80;;;3.90;1.00;;;;;;5047358;28;20520;-77
2021/01/07 02:49:56;;;;;;;5.07;3.70;;;3.90;1.00;;;;;;5045711;28;20199;-77
2021/01/07 02:52:25;;;;;;;8.13;4.20;;;3.80;1.00;;;;;;5043341;28;20179;-77
2021/01/07 02:54:55;;;;;;;10.07;4.72;;;3.90;1.00;;;;;;5053073;28;20533;-77
2021/01/07 02:57:32;;;;;;;11.48;4.40;;;3.80;1.00;;;;;;5038932;28;20717;-77
2021/01/07 03:00:07;;;;;;;7.75;4.15;;;3.80;1.00;;;;;;5037151;28;20528;-77
2021/01/07 03:02:40;;;;;;;10.10;5.18;;;3.70;1.00;;;;;;5047522;28;20172;-77
2021/01/07 03:05:13;;;;;;;11.55;5.38;;;3.70;1.00;;;;;;5042495;28;20164;-76
2021/01/07 03:07:43;;;;;;;10.77;4.65;;;3.70;1.00;;;;;;5043910;28;20538;-77
2021/01/07 03:10:13;;;;;;;11.57;5.03;;;3.70;1.00;;;;;;5050983;28;20156;-77
2021/01/07 03:12:43;;;;;;;9.82;4.80;;;3.70;1.00;;;;;;5050910;28;20270;-77
2021/01/07 03:15:13;;;;;;;8.27;4.57;;;3.70;1.00;;;;;;5052947;28;20638;-77
2021/01/07 03:17:45;;;;;;;8.05;4.43;;;3.70;1.00;;;;;;5042207;28;20204;-77
2021/01/07 03:20:13;;;;;;;10.02;4.55;;;3.70;1.00;;;;;;5038484;28;20171;-77
2021/01/07 03:22:43;;;;;;;11.77;5.72;;;3.70;1.00;;;;;;5056545;28;20176;-77
2021/01/07 03:25:13;;;;;;;8.85;4.30;;;3.70;1.00;;;;;;5057067;28;20156;-77
2021/01/07 03:27:43;;;;;;;11.13;4.43;;;3.70;1.00;;;;;;5056498;28;20683;-77
2021/01/07 03:30:13;;;;;;;7.88;4.25;;;3.70;1.00;;;;;;5056897;28;20156;-75
2021/01/07 03:32:43;;;;;;;6.07;3.65;;;3.60;1.00;;;;;;5050485;28;20226;-77
2021/01/07 03:35:42;;;;;;;9.60;4.05;;;3.70;1.00;;;;;;5056814;28;20164;-77
2021/01/07 03:38:08;;;;;;;6.25;3.17;;;3.70;1.00;;;;;;5056288;28;20294;-77
2021/01/07 03:40:43;;;;;;;8.37;3.60;;;3.70;1.00;;;;;;5056491;28;20210;-76
2021/01/07 03:43:13;;;;;;;8.13;3.85;;;3.60;1.00;;;;;;5051642;28;20678;-75
2021/01/07 03:45:43;;;;;;;7.97;4.50;;;3.60;1.00;;;;;;5056378;28;20176;-75
2021/01/07 03:48:13;;;;;;;8.43;4.05;;;3.60;1.00;;;;;;5047755;28;20196;-75
2021/01/07 03:50:43;;;;;;;12.40;4.30;;;3.70;1.00;;;;;;5036110;28;20161;-77
2021/01/07 03:53:13;;;;;;;7.45;4.38;;;3.60;1.00;;;;;;5043214;28;20210;-76
2021/01/07 03:55:43;;;;;;;11.10;5.00;;;3.60;1.00;;;;;;5056339;28;20239;-75
2021/01/07 03:58:13;;;;;;;20.15;6.55;;;3.60;1.00;;;;;;5056168;28;20483;-77
2021/01/07 04:00:43;;;;;;;8.50;3.63;;;3.60;1.00;;;;;;5037689;28;20184;-76
2021/01/07 04:03:16;;;;;;;9.45;3.90;;;3.50;1.00;;;;;;5042385;28;20620;-77
2021/01/07 04:05:43;;;;;;;11.32;4.90;;;3.50;1.00;;;;;;5054025;28;20255;-75
2021/01/07 04:08:43;;;;;;;10.80;4.90;;;3.50;1.00;;;;;;5056083;28;20309;-75
2021/01/07 04:11:13;;;;;;;14.13;5.03;;;3.50;1.00;;;;;;5055895;28;20152;-77
2021/01/07 04:14:12;;;;;;;9.80;4.40;;;3.50;1.00;;;;;;5055742;28;20160;-77
2021/01/07 04:16:55;;;;;;;14.77;4.45;;;3.50;1.00;;;;;;5035957;28;20616;-77
2021/01/07 04:22:42;;;;;;;6.63;3.80;;;3.40;1.00;;;;;;5047012;28;20527;-78
2021/01/07 04:31:51;;;;;;;10.48;5.00;;;3.40;1.00;;;;;;5036199;28;20862;-75
2021/01/07 04:34:17;;;;;;;13.30;5.30;;;3.40;1.00;;;;;;5047952;28;20255;-75
2021/01/07 04:36:43;;;;;;;7.40;3.80;;;3.50;1.00;;;;;;5055356;28;20221;-75
2021/01/07 04:39:13;;;;;;;14.07;5.30;;;3.50;1.00;;;;;;5043967;28;20184;-75
2021/01/07 04:41:39;;;;;;;9.63;4.05;;;3.50;1.00;;;;;;5035534;28;20168;-75
2021/01/07 04:44:54;;;;;;;8.47;3.67;;;3.50;1.00;;;;;;5041978;28;20179;-77
2021/01/07 04:50:42;;;;;;;10.13;4.45;;;3.50;1.00;;;;;;5055611;28;20700;-77
2021/01/07 04:53:09;;;;;;;11.93;5.60;;;3.40;1.00;;;;;;5041013;28;20181;-77
2021/01/07 04:58:56;;;;;;;14.60;6.13;;;3.40;1.00;;;;;;5034779;28;20604;-77
2021/01/07 05:04:51;;;;;;;7.85;4.47;;;3.40;1.00;;;;;;5046735;28;20205;-76
2021/01/07 05:07:18;;;;;;;11.85;5.50;;;3.50;1.00;;;;;;5055224;28;20244;-75
2021/01/07 05:09:45;;;;;;;12.52;5.00;;;3.50;1.00;;;;;;5054945;28;20156;-75
2021/01/07 05:12:12;;;;;;;15.70;5.80;;;3.50;1.00;;;;;;5053285;28;20665;-75
2021/01/07 05:14:45;;;;;;;10.77;5.38;;;3.50;1.00;;;;;;5054750;28;20172;-75
2021/01/07 05:24:08;;;;;;;7.40;3.83;;;3.40;1.00;;;;;;5034603;28;20202;-75
2021/01/07 05:26:37;;;;;;;7.22;4.47;;;3.40;1.00;;;;;;5033844;28;20710;-75
2021/01/07 05:29:04;;;;;;;16.13;4.65;;;3.40;1.00;;;;;;5042692;28;20184;-75
2021/01/07 05:41:36;;;;;;;11.88;4.03;;;3.40;1.00;;;;;;5053722;28;20177;-75
2021/01/07 05:44:04;;;;;;;7.97;3.93;;;3.30;1.00;;;;;;5053128;28;20171;-75
2021/01/07 05:46:37;;;;;;;9.82;4.90;;;3.30;1.00;;;;;;5037252;28;20418;-75
2021/01/07 05:49:03;;;;;;;11.05;4.18;;;3.30;1.00;;;;;;5052991;28;20170;-75
2021/01/07 05:51:42;;;;;;;8.75;4.63;;;3.40;1.00;;;;;;5034219;28;20167;-77
2021/01/07 05:54:08;;;;;;;12.07;4.90;;;3.30;1.00;;;;;;5053321;28;20168;-76
2021/01/07 05:56:44;;;;;;;9.90;5.00;;;3.30;1.00;;;;;;5044183;28;20200;-75
2021/01/07 05:59:20;;;;;;;11.35;4.32;;;3.30;1.00;;;;;;5044269;28;20805;-75
2021/01/07 06:01:56;;;;;;;11.27;4.53;;;3.40;1.00;;;;;;5034219;28;20284;-75
2021/01/07 06:04:28;;;;;;;10.98;4.75;;;3.40;1.00;;;;;;5054105;28;20521;-76
2021/01/07 06:07:02;;;;;;;15.30;5.35;;;3.40;1.00;;;;;;5053465;28;20172;-76
2021/01/07 06:09:30;;;;;;;31.38;4.57;;;3.40;1.00;;;;;;5053974;28;20172;-75
2021/01/07 06:12:01;;;;;;;10.50;4.80;;;3.40;1.00;;;;;;5052032;28;20172;-75
2021/01/07 06:14:32;;;;;;;13.88;5.30;;;3.40;1.00;;;;;;5051133;28;20176;-76
2021/01/07 06:17:01;;;;;;;9.85;4.95;;;3.40;1.00;;;;;;5034008;28;20200;-75
2021/01/07 06:23:19;;;;;;;11.20;4.30;;;3.40;1.00;;;;;;5033410;28;20187;-77
2021/01/07 06:26:18;;;;;;;8.32;4.13;;;3.40;1.00;;;;;;5035435;28;20256;-77
2021/01/07 06:28:53;;;;;;;15.80;5.18;;;3.40;1.00;;;;;;5053858;28;20160;-75
2021/01/07 06:32:12;;;;;;;13.10;5.90;;;3.40;1.00;;;;;;5050881;28;20186;-77
2021/01/07 06:34:51;;;;;;;20.35;5.03;;;3.40;1.00;;;;;;5051555;28;20627;-76
2021/01/07 06:41:10;;;;;;;15.82;4.85;;;3.40;1.00;;;;;;5040759;28;20215;-77
2021/01/07 06:43:51;;;;;;;12.98;4.57;;;3.30;1.00;;;;;;5033816;28;20161;-77
2021/01/07 06:49:44;;;;;;;11.60;5.25;;;3.30;1.00;;;;;;5033387;28;20183;-78
2021/01/07 06:52:13;;;;;;;11.13;5.10;;;3.30;1.00;;;;;;5033568;28;20601;-74
2021/01/07 06:54:44;;;;;;;11.13;4.30;;;3.30;1.00;;;;;;5040654;28;20261;-75
2021/01/07 06:57:57;;;;;;;17.88;5.13;;;3.30;1.00;;;;;;5048746;28;20554;-82
2021/01/07 07:00:26;;;;;;;7.32;4.53;;;3.30;1.00;;;;;;5037065;28;20192;-75
2021/01/07 07:03:10;;;;;;;10.57;5.55;;;3.30;1.00;;;;;;5056546;28;20242;-75
2021/01/07 07:05:54;;;;;;;10.70;4.88;;;3.30;1.00;;;;;;5050894;28;20196;-77
2021/01/07 07:08:46;;;;;;;16.00;5.75;;;3.30;1.00;;;;;;5037304;28;20160;-77
2021/01/07 07:11:32;;;;;;;15.10;5.25;;;3.30;1.00;;;;;;5037711;28;20169;-76
2021/01/07 07:14:06;;;;;;;7.55;4.50;;;3.30;1.00;;;;;;5049378;28;20509;-76
2021/01/07 07:19:54;;;;;;;9.98;4.63;;;3.30;1.00;;;;;;5057141;28;20561;-77
2021/01/07 07:22:20;;;;;;;11.83;5.07;;;3.20;1.00;;;;;;5057185;28;20231;-75
2021/01/07 07:24:53;;;;;;;12.97;5.77;;;3.20;1.00;;;;;;5051988;28;20239;-74
2021/01/07 07:27:53;;;;;;;11.05;4.80;;;3.20;1.00;;;;;;5036985;28;20530;-74
2021/01/07 07:30:45;;;;;;;12.18;5.15;;;3.20;1.00;;;;;;5036871;28;20522;-78
2021/01/07 07:33:10;;;;;;;13.13;4.43;;;3.20;1.00;;;;;;5039548;28;20180;-75
2021/01/07 07:35:43;;;;;;;18.30;5.40;;;3.20;1.00;;;;;;5046027;28;20178;-75
2021/01/07 07:38:11;;;;;;;15.15;5.35;;;3.20;1.00;;;;;;5035919;28;20275;-75
2021/01/07 07:40:41;;;;;;;18.65;7.55;;;3.30;1.00;;;;;;5042393;28;20453;-75
2021/01/07 07:43:08;;;;;;;13.45;6.13;;;3.30;1.00;;;;;;5055811;28;20192;-77
2021/01/07 07:45:43;;;;;;;17.25;6.60;;;3.30;1.00;;;;;;5050462;28;20532;-76
2021/01/07 07:48:09;;;;;;;14.95;6.30;;;;;;;;;;5038994;28;20202;-75
2021/01/07 07:50:35;;;;;;;26.30;7.00;;;3.40;1.00;;;;;;5053922;28;20650;-75
2021/01/07 07:53:08;;;;;;;13.60;4.87;;;3.40;1.00;;;;;;5055738;28;20172;-75
2021/01/07 07:59:00;;;;;;;14.75;5.50;;;3.50;1.00;;;;;;5055545;28;20604;-77
2021/01/07 08:04:49;;;;;;;8.07;5.18;;;3.60;1.00;;;;;;5034834;28;20176;-77
2021/01/07 08:07:19;;;;;;;11.23;5.20;;;3.60;1.00;;;;;;5036218;28;20180;-75
2021/01/07 08:10:07;;;;;;;15.75;6.03;;;3.60;1.00;;;;;;5037428;28;20231;-79
2021/01/07 08:12:55;;;;;;;12.57;4.78;;;3.70;1.00;;;;;;5055122;28;20276;-77
2021/01/07 08:15:56;;;;;;;12.18;5.43;;;3.70;1.00;;;;;;5055432;28;20160;-77
2021/01/07 08:18:55;;;;;;;14.98;6.53;;;3.70;1.00;;;;;;5053652;28;20202;-75
2021/01/07 08:21:25;;;;;;;9.90;4.97;;;3.80;1.00;;;;;;5055966;28;20164;-75
2021/01/07 08:24:09;;;;;;;13.27;5.80;;;3.80;1.00;;;;;;5035791;28;20267;-75
2021/01/07 08:26:37;;;;;;;7.43;4.40;;;3.80;1.00;;;;;;5038243;28;20160;-75
2021/01/07 08:29:06;;;;;;;16.00;6.53;;;3.80;1.00;;;;;;5043517;28;20176;-75
2021/01/07 08:34:54;;;;;;;12.60;4.57;;;3.80;1.00;;;;;;5046988;28;20203;-75
2021/01/07 08:37:48;;;;;;;11.32;4.95;;;3.90;1.00;;;;;;5035391;28;20291;-75
2021/01/07 08:40:15;;;;;;;10.10;5.32;;;3.90;1.00;;;;;;5035332;28;20172;-75
2021/01/07 08:52:56;;;;;;;13.57;5.57;;;3.80;1.00;;;;;;5041222;28;20174;-75
2021/01/07 08:55:54;;;;;;;10.95;4.80;;;3.90;1.00;;;;;;5055334;28;20159;-77
2021/01/07 08:58:28;;;;;;;13.98;5.05;;;3.80;1.00;;;;;;5054676;28;20164;-75
2021/01/07 09:01:49;;;;;;;15.52;5.88;;;3.70;1.00;;;;;;5039702;28;20177;-77
2021/01/07 09:07:36;;;;;;;9.45;4.18;;;3.70;1.00;;;;;;5055024;28;20178;-77
2021/01/07 09:10:55;;;;;;;9.43;4.90;;;3.70;1.00;;;;;;5047793;28;20172;-79
2021/01/07 09:16:58;;;;;;;7.78;3.58;;;3.70;1.00;;;;;;5034125;28;20605;-75
2021/01/07 09:19:43;;;;;;;7.07;4.03;;;3.70;1.00;;;;;;5037514;28;20171;-75
2021/01/07 09:22:20;;;;;;;11.73;5.00;;;3.80;1.00;;;;;;5048834;28;20168;-77
2021/01/07 09:24:47;;;;;;;9.75;3.88;;;3.80;1.00;;;;;;5034467;28;20184;-77
2021/01/07 09:34:07;;;;;;;11.35;4.65;;;3.80;1.00;;;;;;5039993;28;20681;-77
2021/01/07 09:36:43;;;;;;;7.65;3.95;;;3.80;1.00;;;;;;5048542;28;20217;-77
2021/01/07 09:39:13;;;;;;;13.05;5.00;;;3.80;1.00;;;;;;5053938;28;20206;-78
2021/01/07 09:45:10;;;;;;;10.15;3.88;;;3.80;1.00;;;;;;5037507;28;20179;-77
2021/01/07 09:47:36;;;;;;;8.18;4.18;;;3.80;1.00;;;;;;5033698;28;20164;-77
2021/01/07 09:50:12;;;;;;;12.07;5.60;;;3.90;1.00;;;;;;5043374;28;20188;-77
2021/01/07 09:52:38;;;;;;;10.20;4.72;;;;;;;;;;5042045;28;20187;-77
2021/01/07 09:55:06;;;;;;;12.60;4.60;;;3.90;1.00;;;;;;5038396;28;20172;-83
2021/01/07 09:57:33;;;;;;;15.75;6.35;;;4.00;1.00;;;;;;5038393;28;20674;-80
2021/01/07 09:59:58;;;;;;;11.75;5.28;;;;;;;;;;5053424;28;20210;-76
2021/01/07 10:02:24;;;;;;;8.83;4.27;;;4.00;1.00;;;;;;5050796;28;20203;-75
2021/01/07 10:04:50;;;;;;;11.70;5.63;;;;;;;;;;5041768;28;20419;-77
2021/01/07 10:07:16;;;;;;;14.35;4.93;;;4.10;1.00;;;;;;5033339;28;20160;-77
2021/01/07 10:09:42;;;;;;;8.60;4.83;;;;;;;;;;5034322;28;20196;-77
2021/01/07 10:12:08;;;;;;;13.47;5.50;;;4.20;1.00;;;;;;5043799;28;20202;-77
2021/01/07 10:14:34;;;;;;;10.43;5.50;;;4.20;1.00;;;;;;5051302;28;20413;-77
2021/01/07 10:17:06;;;;;;;11.80;4.80;;;4.20;1.00;;;;;;5052992;28;20195;-77
2021/01/07 10:19:34;;;;;;;11.25;6.05;;;4.20;1.00;;;;;;5037640;28;20176;-75
2021/01/07 10:22:08;;;;;;;17.83;5.90;;;4.30;1.00;;;;;;5042894;28;20192;-77
2021/01/07 10:24:43;;;;;;;9.35;5.10;;;4.40;1.00;;;;;;5045618;28;20192;-75
2021/01/07 10:27:14;;;;;;;11.80;5.15;;;4.40;1.00;;;;;;5029093;28;20179;-75
2021/01/07 10:29:49;;;;;;;17.58;4.95;;;4.50;1.00;;;;;;5045928;28;20172;-75
2021/01/07 10:32:26;;;;;;;17.83;5.93;;;4.50;1.00;;;;;;5041894;28;20192;-75
2021/01/07 10:34:52;;;;;;;8.18;4.72;;;4.50;1.00;;;;;;5048736;28;20236;-77
2021/01/07 10:37:21;;;;;;;10.45;4.45;;;4.50;1.00;;;;;;5056147;28;20215;-75
2021/01/07 10:40:24;;;;;;;10.98;5.22;;;4.50;1.00;;;;;;5049231;28;20724;-77
2021/01/07 10:43:31;;;;;;;11.77;5.05;;;4.60;1.00;;;;;;5050983;28;20202;-77
2021/01/07 10:46:14;;;;;;;10.93;4.13;;;4.70;1.00;;;;;;5048199;28;20168;-77
2021/01/07 10:49:24;;;;;;;10.35;4.18;;;4.70;1.00;;;;;;5046891;28;20174;-77
2021/01/07 10:52:32;;;;;;;11.20;4.63;;;4.80;1.00;;;;;;5040841;28;20223;-78
2021/01/07 10:55:23;;;;;;;9.50;4.65;;;4.80;1.00;;;;;;5028800;28;20291;-75
2021/01/07 10:58:14;;;;;;;9.05;4.32;;;4.80;1.00;;;;;;5029537;28;20196;-75
2021/01/07 11:01:04;;;;;;;10.27;5.00;;;4.90;1.00;;;;;;5018970;28;20188;-74
2021/01/07 11:03:38;;;;;;;10.10;4.32;;;4.70;1.00;;;;;;5018308;28;20184;-75
2021/01/07 11:06:07;;;;;;;15.52;4.72;;;4.80;1.00;;;;;;5012949;28;20196;-75
2021/01/07 11:08:49;;;;;;;11.23;4.50;;;4.70;1.00;;;;;;5013222;28;20157;-75
2021/01/07 11:11:23;;;;;;;6.55;3.90;;;4.70;1.00;;;;;;5016871;28;20173;-75
2021/01/07 11:14:27;;;;;;;8.00;4.68;;;;;;;;;;5023805;28;20181;-75
2021/01/07 11:16:57;;;;;;;10.48;4.10;;;;;;;;;;4973252;28;20257;-75
2021/01/07 11:19:25;;;;;;;9.57;4.72;;;4.60;1.00;;;;;;4973460;28;20274;-78
2021/01/07 11:22:00;;;;;;;8.60;3.95;;;4.50;1.00;;;;;;4989493;28;20383;-78
2021/01/07 11:24:27;;;;;;;7.10;4.40;;;4.60;1.00;;;;;;4971975;28;610402;-75
2021/01/07 11:26:54;;;;;;;11.30;4.97;;;4.60;1.00;;;;;;4993928;28;20439;-75
2021/01/07 11:29:22;;;;;;;12.55;3.90;;;4.70;1.00;;;;;;4994114;28;20585;-76
2021/01/07 11:31:47;;;;;;;11.27;4.55;;;4.70;1.00;;;;;;5003728;28;20204;-75
2021/01/07 11:34:14;;;;;;;5.50;3.30;;;4.70;1.00;;;;;;5009982;28;20193;-75
2021/01/07 11:36:56;;;;;;;7.70;4.22;;;4.80;1.00;;;;;;5013234;28;20466;-75
2021/01/07 11:39:27;;;;;;;8.23;3.35;;;4.70;1.00;;;;;;5013443;28;20181;-77
2021/01/07 11:42:06;;;;;;;11.45;3.83;;;4.60;1.00;;;;;;5013262;28;20610;-77
2021/01/07 11:45:18;;;;;;;8.35;3.30;;;4.50;1.00;;;;;;5011733;28;20169;-78
2021/01/07 11:47:52;;;;;;;6.90;3.50;;;4.60;1.00;;;;;;5037963;28;20191;-77
2021/01/07 11:50:18;;;;;;;7.72;3.45;;;4.60;1.00;;;;;;5055204;28;20152;-77
2021/01/07 11:52:45;;;;;;;8.07;4.10;;;4.50;1.00;;;;;;5041489;28;20184;-75
2021/01/07 11:55:12;;;;;;;11.95;4.90;;;4.50;1.00;;;;;;5041835;28;20528;-77
2021/01/07 11:57:39;;;;;;;9.98;4.00;;;4.50;1.00;;;;;;5054639;28;20305;-77
2021/01/07 12:00:08;;;;;;;5.82;3.72;;;4.70;1.00;;;;;;5041579;28;20199;-78
2021/01/07 12:02:34;;;;;;;9.52;4.75;;;4.70;1.00;;;;;;5035217;28;20239;-77
2021/01/07 12:05:00;;;;;;;12.80;4.40;;;4.70;1.00;;;;;;5035638;28;20286;-77
2021/01/07 12:07:50;;;;;;;9.32;4.50;;;4.80;1.00;;;;;;5051822;28;20179;-78
2021/01/07 12:10:18;;;;;;;7.13;4.25;;;4.80;1.00;;;;;;5046179;28;20184;-75
2021/01/07 12:12:57;;;;;;;7.55;3.67;;;4.80;1.00;;;;;;5034225;28;20175;-74
2021/01/07 12:15:24;;;;;;;7.85;4.03;;;4.90;1.00;;;;;;5035223;28;20165;-74
2021/01/07 12:17:51;;;;;;;8.20;3.90;;;4.80;1.00;;;;;;5037750;28;20196;-75
2021/01/07 12:20:17;;;;;;;6.20;3.10;;;;;;;;;;5048226;28;20615;-75
2021/01/07 12:22:44;;;;;;;9.70;4.93;;;;;;;;;;5034869;28;20167;-74
2021/01/07 12:25:13;;;;;;;12.43;4.63;;;4.90;1.00;;;;;;5035198;28;20196;-75
2021/01/07 12:27:39;;;;;;;7.72;4.30;;;5.00;1.00;;;;;;5040214;28;20164;-74
2021/01/07 12:30:14;;;;;;;8.50;3.80;;;5.00;1.00;;;;;;5050563;28;20180;-74
2021/01/07 12:32:44;;;;;;;10.70;4.57;;;4.90;1.00;;;;;;5034238;28;20279;-73
2021/01/07 12:35:22;;;;;;;8.73;4.22;;;4.90;1.00;;;;;;5040557;28;20583;-74
2021/01/07 12:38:25;;;;;;;8.05;4.53;;;4.90;1.00;;;;;;5032986;28;20536;-76
2021/01/07 12:40:58;;;;;;;7.93;4.15;;;4.90;1.00;;;;;;5033956;28;20184;-77
2021/01/07 12:43:29;;;;;;;7.15;3.47;;;4.80;1.00;;;;;;5034616;28;20184;-78
2021/01/07 12:46:14;;;;;;;10.77;4.70;;;4.70;1.00;;;;;;5046741;28;20180;-78
2021/01/07 12:52:13;;;;;;;7.25;3.78;;;4.80;1.00;;;;;;5054240;28;20846;-77
2021/01/07 12:54:50;;;;;;;10.07;4.47;;;4.90;1.00;;;;;;5055278;28;20172;-74
2021/01/07 12:57:28;;;;;;;8.57;3.60;;;4.90;1.00;;;;;;5054656;28;20622;-74
2021/01/07 13:00:06;;;;;;;8.02;4.20;;;4.80;1.00;;;;;;5055278;28;20645;-74
2021/01/07 13:02:55;;;;;;;5.43;3.08;;;4.90;1.00;;;;;;5054762;28;20156;-75
2021/01/07 13:05:46;;;;;;;7.38;3.38;;;4.90;1.00;;;;;;5039892;28;20544;-73
2021/01/07 13:08:14;;;;;;;13.00;3.80;;;4.80;1.00;;;;;;5035147;28;20169;-76
2021/01/07 13:10:47;;;;;;;6.03;3.28;;;4.80;1.00;;;;;;5034737;28;20248;-74
2021/01/07 13:13:15;;;;;;;8.30;3.92;;;4.90;1.00;;;;;;5034723;28;20160;-73
2021/01/07 13:15:44;;;;;;;15.02;3.50;;;4.90;1.00;;;;;;5034494;28;20188;-73
2021/01/07 13:18:14;;;;;;;5.93;3.75;;;4.90;1.00;;;;;;5051847;28;20199;-73
2021/01/07 13:20:41;;;;;;;6.22;3.35;;;4.80;1.00;;;;;;5041860;28;20193;-73
2021/01/07 13:23:43;;;;;;;13.52;4.35;;;4.80;1.00;;;;;;5052567;28;20568;-74
2021/01/07 13:26:10;;;;;;;7.35;3.75;;;;;;;;;;5050541;28;20269;-78
2021/01/07 13:28:42;;;;;;;9.30;4.07;;;4.80;1.00;;;;;;5044929;28;20163;-77
2021/01/07 13:31:09;;;;;;;4.82;2.90;;;4.70;1.00;;;;;;5049010;28;20259;-77
2021/01/07 13:33:35;;;;;;;11.75;3.90;;;4.70;1.00;;;;;;5042900;28;20623;-75
2021/01/07 13:36:01;;;;;;;6.83;3.27;;;4.70;1.00;;;;;;5039971;28;20174;-75
2021/01/07 13:38:28;;;;;;;5.40;3.38;;;;;;;;;;5043563;28;20415;-76
2021/01/07 13:41:04;;;;;;;5.57;3.22;;;;;;;;;;5049280;28;20218;-77
2021/01/07 13:43:31;;;;;;;4.78;2.75;;;;;;;;;;5052827;28;20284;-75
2021/01/07 13:45:58;;;;;;;5.97;3.40;;;4.70;1.00;;;;;;5046903;28;20233;-74
2021/01/07 13:48:27;;;;;;;7.50;3.92;;;4.70;1.00;;;;;;5052175;28;20175;-78
2021/01/07 13:50:53;;;;;;;6.65;2.95;;;4.60;1.00;;;;;;5045279;28;20164;-78
2021/01/07 13:53:19;;;;;;;6.40;3.50;;;;;;;;;;5033957;28;20624;-75
2021/01/07 13:55:50;;;;;;;6.57;3.00;;;4.60;1.00;;;;;;5033471;28;20407;-77
2021/01/07 13:58:18;;;;;;;7.35;3.80;;;4.60;1.00;;;;;;5032942;28;20806;-77
2021/01/07 14:00:44;;;;;;;6.40;3.45;;;;;;;;;;5033621;28;20188;-77
2021/01/07 14:03:10;;;;;;;7.13;3.67;;;;;;;;;;5034611;28;20185;-77
2021/01/07 14:05:40;;;;;;;8.05;4.18;;;4.50;1.00;;;;;;5033602;28;20878;-78
2021/01/07 14:08:10;;;;;;;5.90;3.47;;;4.50;1.00;;;;;;5055852;28;20586;-77
2021/01/07 14:10:38;;;;;;;8.40;3.55;;;4.50;1.00;;;;;;5052713;28;20244;-76
2021/01/07 14:13:04;;;;;;;5.45;3.55;;;;;;;;;;5052848;28;20195;-79
2021/01/07 14:16:12;;;;;;;7.40;3.70;;;4.50;1.00;;;;;;5048477;28;20175;-78
2021/01/07 14:19:02;;;;;;;13.85;4.25;;;4.50;1.00;;;;;;5053313;28;20480;-78
2021/01/07 14:21:33;;;;;;;6.00;2.55;;;4.40;1.00;;;;;;5053571;28;20588;-72
2021/01/07 14:24:02;;;;;;;6.75;3.47;;;4.40;1.00;;;;;;5044489;28;20522;-76
2021/01/07 14:29:51;;;;;;;11.95;3.63;;;4.50;1.00;;;;;;5033859;28;20658;-78
2021/01/07 14:33:13;;;;;;;6.05;3.20;;;4.50;1.00;;;;;;5047530;28;20190;-78
2021/01/07 14:35:39;;;;;;;5.20;3.08;;;4.50;1.00;;;;;;5037281;28;20167;-72
2021/01/07 14:38:10;;;;;;;8.93;3.00;;;4.60;1.00;;;;;;5053137;28;20543;-73
2021/01/07 14:40:37;;;;;;;9.02;3.90;;;4.60;1.00;;;;;;5047432;28;20198;-74
2021/01/07 14:43:04;;;;;;;7.60;3.42;;;;;;;;;;5040971;28;20185;-74
2021/01/07 14:45:31;;;;;;;8.30;3.75;;;4.60;1.00;;;;;;5041875;28;20152;-75
2021/01/07 14:48:01;;;;;;;7.53;3.85;;;4.60;1.00;;;;;;5049857;28;20168;-74
2021/01/07 14:50:32;;;;;;;10.07;4.03;;;4.70;1.00;;;;;;5032801;28;20251;-73
2021/01/07 14:53:04;;;;;;;5.10;3.15;;;4.70;1.00;;;;;;5032360;28;20177;-73
2021/01/07 14:55:30;;;;;;;7.68;3.60;;;4.70;1.00;;;;;;5050447;28;20168;-78
2021/01/07 14:57:56;;;;;;;8.93;3.95;;;;;;;;;;5041232;28;20219;-79
2021/01/07 15:00:37;;;;;;;6.13;3.70;;;4.70;1.00;;;;;;5052513;28;20180;-79
2021/01/07 15:03:08;;;;;;;7.90;3.35;;;4.70;1.00;;;;;;5036096;28;20441;-78
2021/01/07 15:05:34;;;;;;;6.32;3.90;;;;;;;;;;5036363;28;20187;-77
2021/01/07 15:08:27;;;;;;;7.10;3.55;;;4.80;1.00;;;;;;5043637;28;20254;-77
2021/01/07 15:10:59;;;;;;;8.52;3.17;;;4.70;1.00;;;;;;5049125;28;20199;-74
2021/01/07 15:13:32;;;;;;;4.82;3.35;;;4.70;1.00;;;;;;5041765;28;20180;-80
2021/01/07 15:16:00;;;;;;;10.73;3.90;;;4.70;1.00;;;;;;5045680;28;20194;-75
2021/01/07 15:18:36;;;;;;;6.63;3.60;;;4.60;1.00;;;;;;5068335;28;20204;-74
2021/01/07 15:21:10;;;;;;;6.10;3.25;;;4.60;1.00;;;;;;5045103;28;20599;-74
2021/01/07 15:24:02;;;;;;;6.93;3.55;;;4.60;1.00;;;;;;5055772;28;20156;-74
2021/01/07 15:27:07;;;;;;;5.40;3.25;;;4.60;1.00;;;;;;5056189;28;20172;-78
2021/01/07 15:29:35;;;;;;;14.13;4.15;;;4.60;1.00;;;;;;5053847;28;20178;-77
2021/01/07 15:32:02;;;;;;;5.50;3.13;;;4.60;1.00;;;;;;5042121;28;20218;-77